createdAt,value
2022-10-15T00:01:31.183Z,14.20
2022-10-15T00:06:34.976Z,14.20
2022-10-15T00:09:03.238Z,14.10
2022-10-15T00:11:31.705Z,14.10
2022-10-15T00:14:01.249Z,14.10
2022-10-15T00:16:30.454Z,14.10
2022-10-15T00:19:01.007Z,14.00
2022-10-15T00:21:29.238Z,14.00
2022-10-15T00:23:58.044Z,14.00
2022-10-15T00:26:28.365Z,13.90
2022-10-15T00:28:59.108Z,13.90
2022-10-15T00:31:28.272Z,13.90
2022-10-15T00:33:57.795Z,13.90
2022-10-15T00:36:28.727Z,13.80
2022-10-15T00:38:57.516Z,13.80
2022-10-15T00:41:28.202Z,13.80
2022-10-15T00:43:57.801Z,13.80
2022-10-15T00:46:28.465Z,13.80
2022-10-15T00:49:01.600Z,13.80
2022-10-15T00:51:34.697Z,13.70
2022-10-15T00:54:03.298Z,13.80
2022-10-15T00:56:32.930Z,13.70
2022-10-15T00:59:02.213Z,13.70
2022-10-15T01:01:30.653Z,13.70
2022-10-15T01:03:59.473Z,13.70
2022-10-15T01:06:28.323Z,13.70
2022-10-15T01:08:58.291Z,13.70
2022-10-15T01:11:38.853Z,13.60
2022-10-15T01:14:25.149Z,13.60
2022-10-15T01:16:58.756Z,13.60
2022-10-15T01:19:47.808Z,13.60
2022-10-15T01:22:22.446Z,13.60
2022-10-15T01:25:05.299Z,13.60
2022-10-15T01:27:37.231Z,13.60
2022-10-15T01:30:30.360Z,13.60
2022-10-15T01:33:21.927Z,13.60
2022-10-15T01:35:52.449Z,13.60
2022-10-15T01:38:34.191Z,13.60
2022-10-15T01:41:10.144Z,13.60
2022-10-15T01:43:44.311Z,13.60
2022-10-15T01:46:40.118Z,13.60
2022-10-15T01:49:14.131Z,13.50
2022-10-15T01:51:45.943Z,13.60
2022-10-15T01:54:19.250Z,13.60
2022-10-15T01:56:50.586Z,13.50
2022-10-15T01:59:23.705Z,13.60
2022-10-15T02:01:55.037Z,13.60
2022-10-15T02:04:27.414Z,13.60
2022-10-15T02:07:01.483Z,13.60
2022-10-15T02:09:39.942Z,13.60
2022-10-15T02:12:15.771Z,13.50
2022-10-15T02:14:54.610Z,13.50
2022-10-15T02:17:29.231Z,13.50
2022-10-15T02:20:03.208Z,13.50
2022-10-15T02:22:36.474Z,13.50
2022-10-15T02:25:11.999Z,13.50
2022-10-15T02:27:41.442Z,13.50
2022-10-15T02:30:12.292Z,13.50
2022-10-15T02:32:43.545Z,13.50
2022-10-15T02:35:12.906Z,13.50
2022-10-15T02:37:47.327Z,13.50
2022-10-15T02:40:20.878Z,13.50
2022-10-15T02:42:50.956Z,13.50
2022-10-15T02:45:19.095Z,13.50
2022-10-15T02:47:48.555Z,13.50
2022-10-15T02:50:16.872Z,13.50
2022-10-15T02:52:45.050Z,13.50
2022-10-15T02:55:15.215Z,13.50
2022-10-15T02:57:43.286Z,13.40
2022-10-15T03:00:12.526Z,13.40
2022-10-15T03:02:42.093Z,13.40
2022-10-15T03:05:12.467Z,13.40
2022-10-15T03:07:40.624Z,13.40
2022-10-15T03:10:09.584Z,13.40
2022-10-15T03:12:37.930Z,13.40
2022-10-15T03:15:08.764Z,13.40
2022-10-15T03:17:37.408Z,13.30
2022-10-15T03:20:06.271Z,13.30
2022-10-15T03:22:39.641Z,13.30
2022-10-15T03:25:08.392Z,13.30
2022-10-15T03:27:36.466Z,13.30
2022-10-15T03:30:12.870Z,13.30
2022-10-15T03:35:15.266Z,13.30
2022-10-15T03:37:44.789Z,13.30
2022-10-15T03:40:14.596Z,13.30
2022-10-15T03:42:44.743Z,13.30
2022-10-15T03:45:13.298Z,13.20
2022-10-15T03:47:41.690Z,13.20
2022-10-15T03:50:10.433Z,13.20
2022-10-15T03:52:38.844Z,13.20
2022-10-15T03:55:10.604Z,13.20
2022-10-15T03:57:39.224Z,13.20
2022-10-15T04:00:09.626Z,13.20
2022-10-15T04:02:40.271Z,13.20
2022-10-15T04:05:19.073Z,13.10
2022-10-15T04:07:53.116Z,13.10
2022-10-15T04:10:23.982Z,13.10
2022-10-15T04:12:52.290Z,13.10
2022-10-15T04:15:20.573Z,13.10
2022-10-15T04:17:58.271Z,13.10
2022-10-15T04:20:28.510Z,13.10
2022-10-15T04:23:09.036Z,13.10
2022-10-15T04:25:41.143Z,13.10
2022-10-15T04:28:09.708Z,13.10
2022-10-15T04:30:40.042Z,13.00
2022-10-15T04:33:12.265Z,13.00
2022-10-15T04:35:41.167Z,13.00
2022-10-15T04:38:16.974Z,13.00
2022-10-15T04:41:06.658Z,13.00
2022-10-15T04:43:55.694Z,13.00
2022-10-15T04:46:23.938Z,13.00
2022-10-15T04:48:57.650Z,12.90
2022-10-15T04:51:27.145Z,12.90
2022-10-15T04:54:13.831Z,12.90
2022-10-15T04:56:58.301Z,12.90
2022-10-15T04:59:27.074Z,12.90
2022-10-15T05:02:34.064Z,12.90
2022-10-15T05:05:28.147Z,12.90
2022-10-15T05:08:01.882Z,12.90
2022-10-15T05:10:31.362Z,12.90
2022-10-15T05:13:05.534Z,12.90
2022-10-15T05:15:36.301Z,12.80
2022-10-15T05:18:08.148Z,12.90
2022-10-15T05:20:45.342Z,12.80
2022-10-15T05:23:17.719Z,12.80
2022-10-15T05:25:54.554Z,12.90
2022-10-15T05:28:27.689Z,12.80
2022-10-15T05:30:55.798Z,12.80
2022-10-15T05:33:23.981Z,12.80
2022-10-15T05:35:52.080Z,12.80
2022-10-15T05:38:22.515Z,12.80
2022-10-15T05:40:50.742Z,12.80
2022-10-15T05:43:22.234Z,12.80
2022-10-15T05:45:55.306Z,12.80
2022-10-15T05:48:24.114Z,12.90
2022-10-15T05:50:52.230Z,12.90
2022-10-15T05:53:25.856Z,12.90
2022-10-15T05:55:59.684Z,12.80
2022-10-15T05:58:37.337Z,12.90
2022-10-15T06:01:08.836Z,12.80
2022-10-15T06:03:40.361Z,12.90
2022-10-15T06:06:15.943Z,12.80
2022-10-15T06:08:44.280Z,12.80
2022-10-15T06:11:12.448Z,12.80
2022-10-15T06:13:41.189Z,12.80
2022-10-15T06:16:11.680Z,12.80
2022-10-15T06:18:40.506Z,12.80
2022-10-15T06:21:14.188Z,12.80
2022-10-15T06:23:42.337Z,12.80
2022-10-15T06:26:11.563Z,12.80
2022-10-15T06:28:40.436Z,12.80
2022-10-15T06:31:10.694Z,12.80
2022-10-15T06:33:38.818Z,12.80
2022-10-15T06:36:09.169Z,12.80
2022-10-15T06:38:39.417Z,12.90
2022-10-15T06:41:08.670Z,12.90
2022-10-15T06:43:37.349Z,12.90
2022-10-15T06:46:06.844Z,12.90
2022-10-15T06:48:36.659Z,12.90
2022-10-15T06:51:05.559Z,12.90
2022-10-15T06:53:33.669Z,12.90
2022-10-15T06:56:03.149Z,12.90
2022-10-15T06:58:37.391Z,12.90
2022-10-15T07:01:07.639Z,13.00
2022-10-15T07:03:38.951Z,13.00
2022-10-15T07:06:10.177Z,13.00
2022-10-15T07:08:38.600Z,13.00
2022-10-15T07:11:08.805Z,13.00
2022-10-15T07:13:37.080Z,13.00
2022-10-15T07:16:06.400Z,13.10
2022-10-15T07:18:36.902Z,13.10
2022-10-15T07:21:06.745Z,13.10
2022-10-15T07:23:35.086Z,13.10
2022-10-15T07:26:03.342Z,13.10
2022-10-15T07:28:31.456Z,13.10
2022-10-15T07:31:02.726Z,13.10
2022-10-15T07:33:30.878Z,13.10
2022-10-15T07:36:06.280Z,13.10
2022-10-15T07:38:34.609Z,13.20
2022-10-15T07:41:04.202Z,13.20
2022-10-15T07:43:33.600Z,13.20
2022-10-15T07:46:01.876Z,13.20
2022-10-15T07:48:29.913Z,13.30
2022-10-15T07:50:58.447Z,13.30
2022-10-15T07:53:28.694Z,13.30
2022-10-15T07:56:00.489Z,13.40
2022-10-15T07:58:34.467Z,13.40
2022-10-15T08:01:03.879Z,13.50
2022-10-15T08:03:32.427Z,13.50
2022-10-15T08:06:01.391Z,13.50
2022-10-15T08:08:31.510Z,13.50
2022-10-15T08:10:59.673Z,13.50
2022-10-15T08:13:27.762Z,13.50
2022-10-15T08:15:59.261Z,13.50
2022-10-15T08:18:28.595Z,13.60
2022-10-15T08:21:00.187Z,13.60
2022-10-15T08:23:28.382Z,13.60
2022-10-15T08:25:58.970Z,13.60
2022-10-15T08:28:27.185Z,13.70
2022-10-15T08:30:55.658Z,13.70
2022-10-15T08:33:23.693Z,13.70
2022-10-15T08:35:51.770Z,13.70
2022-10-15T08:38:20.065Z,13.70
2022-10-15T08:40:49.712Z,13.80
2022-10-15T08:43:24.057Z,13.80
2022-10-15T08:45:56.566Z,13.80
2022-10-15T08:48:37.442Z,13.80
2022-10-15T08:51:11.006Z,13.90
2022-10-15T08:53:42.584Z,13.90
2022-10-15T08:56:18.204Z,13.90
2022-10-15T08:58:57.261Z,13.90
2022-10-15T09:01:31.017Z,14.00
2022-10-15T09:04:08.927Z,14.00
2022-10-15T09:06:38.878Z,14.10
2022-10-15T09:09:13.851Z,14.10
2022-10-15T09:11:51.710Z,14.10
2022-10-15T09:14:24.741Z,14.10
2022-10-15T09:16:52.848Z,14.20
2022-10-15T09:19:23.177Z,14.20
2022-10-15T09:21:53.656Z,14.20
2022-10-15T09:24:24.220Z,14.30
2022-10-15T09:27:05.091Z,14.30
2022-10-15T09:29:42.743Z,14.30
2022-10-15T09:32:18.865Z,14.40
2022-10-15T09:34:54.404Z,14.40
2022-10-15T09:37:29.344Z,14.40
2022-10-15T09:40:19.734Z,14.50
2022-10-15T09:42:50.901Z,14.50
2022-10-15T09:45:20.991Z,14.50
2022-10-15T09:47:49.104Z,14.60
2022-10-15T09:53:06.807Z,14.70
2022-10-15T09:55:41.229Z,14.80
2022-10-15T09:58:15.543Z,14.80
2022-10-15T10:01:02.535Z,14.90
2022-10-15T10:03:36.808Z,14.90
2022-10-15T10:06:08.608Z,15.00
2022-10-15T10:08:52.224Z,15.00
2022-10-15T10:11:21.469Z,15.10
2022-10-15T10:13:54.625Z,15.10
2022-10-15T10:16:25.367Z,15.20
2022-10-15T10:19:12.442Z,15.20
2022-10-15T10:21:42.786Z,15.30
2022-10-15T10:24:25.953Z,15.30
2022-10-15T10:26:54.087Z,15.40
2022-10-15T10:29:33.471Z,15.40
2022-10-15T10:32:12.004Z,15.50
2022-10-15T10:34:40.059Z,15.50
2022-10-15T10:37:10.153Z,15.60
2022-10-15T10:39:38.339Z,15.60
2022-10-15T10:42:08.569Z,15.70
2022-10-15T10:44:38.402Z,15.80
2022-10-15T10:47:16.400Z,15.80
2022-10-15T10:49:45.911Z,15.90
2022-10-15T10:52:25.510Z,16.00
2022-10-15T10:55:01.345Z,16.10
2022-10-15T10:57:43.172Z,16.10
2022-10-15T11:00:17.445Z,16.20
2022-10-15T11:02:52.212Z,16.20
2022-10-15T11:05:26.706Z,16.30
2022-10-15T11:08:06.414Z,16.30
2022-10-15T11:10:42.246Z,16.30
2022-10-15T11:13:35.021Z,16.40
2022-10-15T11:16:08.896Z,16.40
2022-10-15T11:18:52.164Z,16.40
2022-10-15T11:21:30.153Z,16.50
2022-10-15T11:24:11.341Z,16.50
2022-10-15T11:27:06.386Z,16.60
2022-10-15T11:29:54.849Z,16.60
2022-10-15T11:33:01.784Z,16.70
2022-10-15T11:35:54.463Z,16.70
2022-10-15T11:38:31.098Z,16.70
2022-10-15T11:41:18.049Z,16.70
2022-10-15T11:43:59.315Z,16.80
2022-10-15T11:46:34.149Z,16.80
2022-10-15T11:49:19.677Z,16.80
2022-10-15T11:52:14.503Z,16.80
2022-10-15T11:54:46.480Z,16.80
2022-10-15T11:57:19.592Z,16.80
2022-10-15T11:59:53.098Z,16.80
2022-10-15T12:02:25.785Z,16.80
2022-10-15T12:04:57.279Z,16.80
2022-10-15T12:07:31.918Z,16.80
2022-10-15T12:10:10.646Z,16.90
2022-10-15T12:12:48.129Z,16.90
2022-10-15T12:15:27.740Z,16.90
2022-10-15T12:18:04.557Z,16.90
2022-10-15T12:20:32.736Z,16.90
2022-10-15T12:23:03.562Z,17.00
2022-10-15T12:25:46.064Z,17.00
2022-10-15T12:28:20.984Z,17.00
2022-10-15T12:31:03.307Z,17.00
2022-10-15T12:33:35.927Z,17.10
2022-10-15T12:36:09.854Z,17.20
2022-10-15T12:38:42.420Z,17.20
2022-10-15T12:41:12.460Z,17.30
2022-10-15T12:43:43.618Z,17.30
2022-10-15T12:46:13.826Z,17.30
2022-10-15T12:48:44.600Z,17.40
2022-10-15T12:51:42.970Z,17.40
2022-10-15T12:54:41.188Z,17.40
2022-10-15T12:58:01.320Z,17.50
2022-10-15T13:00:40.652Z,17.50
2022-10-15T13:03:21.845Z,17.50
2022-10-15T13:05:53.262Z,17.50
2022-10-15T13:08:35.193Z,17.50
2022-10-15T13:11:04.788Z,17.50
2022-10-15T13:13:35.502Z,17.50
2022-10-15T13:16:09.185Z,17.50
2022-10-15T13:18:37.589Z,17.50
2022-10-15T13:21:07.633Z,17.50
2022-10-15T13:23:38.036Z,17.40
2022-10-15T13:26:18.070Z,17.40
2022-10-15T13:28:47.612Z,17.40
2022-10-15T13:31:27.458Z,17.40
2022-10-15T13:34:02.343Z,17.30
2022-10-15T13:36:34.143Z,17.30
2022-10-15T13:39:09.342Z,17.30
2022-10-15T13:41:40.338Z,17.30
2022-10-15T13:44:20.503Z,17.20
2022-10-15T13:46:48.676Z,17.20
2022-10-15T13:49:16.839Z,17.20
2022-10-15T13:51:46.869Z,17.20
2022-10-15T13:54:19.160Z,17.20
2022-10-15T13:56:55.693Z,17.10
2022-10-15T13:59:25.136Z,17.10
2022-10-15T14:01:55.815Z,17.10
2022-10-15T14:04:25.106Z,17.10
2022-10-15T14:09:34.810Z,17.00
2022-10-15T14:12:06.836Z,17.00
2022-10-15T14:14:36.879Z,17.00
2022-10-15T14:17:07.124Z,16.90
2022-10-15T14:19:38.144Z,16.90
2022-10-15T14:22:07.055Z,16.90
2022-10-15T14:24:36.738Z,16.90
2022-10-15T14:27:09.631Z,16.90
2022-10-15T14:29:41.119Z,16.90
2022-10-15T14:32:23.988Z,16.80
2022-10-15T14:34:53.190Z,16.80
2022-10-15T14:37:33.272Z,16.80
2022-10-15T14:40:13.793Z,16.80
2022-10-15T14:42:44.977Z,16.80
2022-10-15T14:45:15.374Z,16.80
2022-10-15T14:47:47.584Z,16.70
2022-10-15T14:50:16.242Z,16.70
2022-10-15T14:52:46.714Z,16.70
2022-10-15T14:55:26.298Z,16.70
2022-10-15T14:57:56.167Z,16.70
2022-10-15T15:00:27.443Z,16.60
2022-10-15T15:02:57.830Z,16.60
2022-10-15T15:05:27.333Z,16.60
2022-10-15T15:07:56.891Z,16.60
2022-10-15T15:10:26.216Z,16.60
2022-10-15T15:12:57.950Z,16.60
2022-10-15T15:15:27.676Z,16.60
2022-10-15T15:17:55.997Z,16.60
2022-10-15T15:20:25.934Z,16.50
2022-10-15T15:22:55.967Z,16.50
2022-10-15T15:25:30.261Z,16.50
2022-10-15T15:27:59.905Z,16.50
2022-10-15T15:30:31.700Z,16.50
2022-10-15T15:33:00.603Z,16.50
2022-10-15T15:35:34.891Z,16.50
2022-10-15T15:38:03.135Z,16.50
2022-10-15T15:40:32.342Z,16.40
2022-10-15T15:43:01.853Z,16.40
2022-10-15T15:45:30.499Z,16.40
2022-10-15T15:48:02.091Z,16.40
2022-10-15T15:50:30.643Z,16.40
2022-10-15T15:52:58.845Z,16.40
2022-10-15T15:55:26.985Z,16.40
2022-10-15T15:57:55.029Z,16.40
2022-10-15T16:00:24.496Z,16.40
2022-10-15T16:02:55.457Z,16.40
2022-10-15T16:05:26.062Z,16.30
2022-10-15T16:07:54.134Z,16.30
2022-10-15T16:10:22.180Z,16.30
2022-10-15T16:12:50.252Z,16.30
2022-10-15T16:15:18.557Z,16.30
2022-10-15T16:17:47.961Z,16.30
2022-10-15T16:20:16.063Z,16.30
2022-10-15T16:22:44.178Z,16.30
2022-10-15T16:25:12.364Z,16.30
2022-10-15T16:27:40.357Z,16.30
2022-10-15T16:30:09.122Z,16.30
2022-10-15T16:32:37.155Z,16.30
2022-10-15T16:35:07.936Z,16.30
2022-10-15T16:37:36.200Z,16.30
2022-10-15T16:40:04.585Z,16.30
2022-10-15T16:42:32.613Z,16.30
2022-10-15T16:45:00.895Z,16.30
2022-10-15T16:47:29.197Z,16.30
2022-10-15T16:49:57.406Z,16.30
2022-10-15T16:52:27.260Z,16.30
2022-10-15T16:54:55.571Z,16.30
2022-10-15T16:57:23.942Z,16.30
2022-10-15T16:59:52.106Z,16.30
2022-10-15T17:02:20.193Z,16.30
2022-10-15T17:04:48.293Z,16.30
2022-10-15T17:07:16.420Z,16.30
2022-10-15T17:12:16.150Z,16.30
2022-10-15T17:14:50.681Z,16.30
2022-10-15T17:17:18.750Z,16.30
2022-10-15T17:19:46.874Z,16.30
2022-10-15T17:22:14.971Z,16.30
2022-10-15T17:24:43.066Z,16.30
2022-10-15T17:27:15.049Z,16.30
2022-10-15T17:29:44.670Z,16.30
2022-10-15T17:32:12.855Z,16.20
2022-10-15T17:34:41.000Z,16.20
2022-10-15T17:37:09.504Z,16.20
2022-10-15T17:39:37.666Z,16.20
2022-10-15T17:42:05.746Z,16.20
2022-10-15T17:44:35.153Z,16.20
2022-10-15T17:47:03.222Z,16.20
2022-10-15T17:49:31.390Z,16.20
2022-10-15T17:51:59.422Z,16.20
2022-10-15T17:54:27.474Z,16.20
2022-10-15T17:56:55.487Z,16.20
2022-10-15T17:59:24.579Z,16.20
2022-10-15T18:01:58.266Z,16.20
2022-10-15T18:04:27.093Z,16.20
2022-10-15T18:06:55.103Z,16.20
2022-10-15T18:09:26.802Z,16.20
2022-10-15T18:11:56.586Z,16.10
2022-10-15T18:14:28.845Z,16.10
2022-10-15T18:16:58.674Z,16.10
2022-10-15T18:19:28.097Z,16.10
2022-10-15T18:21:57.010Z,16.10
2022-10-15T18:24:25.980Z,16.10
2022-10-15T18:26:54.878Z,16.10
2022-10-15T18:29:25.198Z,16.10
2022-10-15T18:31:57.318Z,16.10
2022-10-15T18:34:30.266Z,16.10
2022-10-15T18:36:58.429Z,16.00
2022-10-15T18:39:27.037Z,16.00
2022-10-15T18:41:55.306Z,16.00
2022-10-15T18:44:23.877Z,16.00
2022-10-15T18:46:52.844Z,16.00
2022-10-15T18:49:21.905Z,16.00
2022-10-15T18:51:55.318Z,16.00
2022-10-15T18:54:23.865Z,15.90
2022-10-15T18:56:52.557Z,15.90
2022-10-15T18:59:21.093Z,15.90
2022-10-15T19:01:50.197Z,15.90
2022-10-15T19:04:19.782Z,15.90
2022-10-15T19:06:49.636Z,15.90
2022-10-15T19:09:20.548Z,15.90
2022-10-15T19:11:50.452Z,15.90
2022-10-15T19:14:18.898Z,15.90
2022-10-15T19:16:47.886Z,15.90
2022-10-15T19:19:17.964Z,15.90
2022-10-15T19:21:47.024Z,15.90
2022-10-15T19:24:16.233Z,15.90
2022-10-15T19:26:45.855Z,15.90
2022-10-15T19:29:14.246Z,15.90
2022-10-15T19:31:45.125Z,15.90
2022-10-15T19:34:14.237Z,15.80
2022-10-15T19:36:44.124Z,15.80
2022-10-15T19:39:15.277Z,15.80
2022-10-15T19:41:45.717Z,15.80
2022-10-15T19:44:16.760Z,15.70
2022-10-15T19:46:46.135Z,15.70
2022-10-15T19:49:14.847Z,15.70
2022-10-15T19:51:43.123Z,15.70
2022-10-15T19:54:11.246Z,15.70
2022-10-15T19:56:39.300Z,15.70
2022-10-15T19:59:08.915Z,15.60
2022-10-15T20:01:37.109Z,15.60
2022-10-15T20:04:06.895Z,15.60
2022-10-15T20:06:35.891Z,15.60
2022-10-15T20:09:04.228Z,15.60
2022-10-15T20:11:32.662Z,15.50
2022-10-15T20:14:00.862Z,15.50
2022-10-15T20:16:33.177Z,15.50
2022-10-15T20:19:02.862Z,15.40
2022-10-15T20:21:31.154Z,15.40
2022-10-15T20:23:59.258Z,15.40
2022-10-15T20:26:27.353Z,15.40
2022-10-15T20:28:55.538Z,15.40
2022-10-15T20:31:28.484Z,15.30
2022-10-15T20:33:58.102Z,15.30
2022-10-15T20:36:27.326Z,15.30
2022-10-15T20:38:57.315Z,15.30
2022-10-15T20:41:25.789Z,15.30
2022-10-15T20:43:55.698Z,15.20
2022-10-15T20:46:27.871Z,15.20
2022-10-15T20:49:00.567Z,15.20
2022-10-15T20:51:30.631Z,15.20
2022-10-15T20:54:00.071Z,15.20
2022-10-15T20:56:28.303Z,15.20
2022-10-15T20:58:56.375Z,15.20
2022-10-15T21:01:24.646Z,15.10
2022-10-15T21:03:52.770Z,15.10
2022-10-15T21:06:22.265Z,15.10
2022-10-15T21:08:50.449Z,15.10
2022-10-15T21:11:18.912Z,15.10
2022-10-15T21:13:47.211Z,15.10
2022-10-15T21:16:15.309Z,15.00
2022-10-15T21:18:43.457Z,15.00
2022-10-15T21:21:14.512Z,15.00
2022-10-15T21:23:44.280Z,15.00
2022-10-15T21:26:13.938Z,14.90
2022-10-15T21:28:42.438Z,14.90
2022-10-15T21:31:12.594Z,14.90
2022-10-15T21:33:41.410Z,14.90
2022-10-15T21:36:14.284Z,14.90
2022-10-15T21:38:43.837Z,14.90
2022-10-15T21:41:11.983Z,14.80
2022-10-15T21:43:40.122Z,14.80
2022-10-15T21:46:09.769Z,14.80
2022-10-15T21:48:38.556Z,14.80
2022-10-15T21:51:09.483Z,14.70
2022-10-15T21:53:37.784Z,14.70
2022-10-15T21:56:08.373Z,14.70
2022-10-15T21:58:37.880Z,14.70
2022-10-15T22:01:11.838Z,14.70
2022-10-15T22:03:41.966Z,14.60
2022-10-15T22:06:11.925Z,14.60
2022-10-15T22:08:40.226Z,14.60
2022-10-15T22:11:11.467Z,14.60
2022-10-15T22:13:42.261Z,14.60
2022-10-15T22:16:11.381Z,14.50
2022-10-15T22:18:40.403Z,14.50
2022-10-15T22:21:15.773Z,14.50
2022-10-15T22:23:45.031Z,14.50
2022-10-15T22:26:15.037Z,14.40
2022-10-15T22:28:43.497Z,14.40
2022-10-15T22:31:14.766Z,14.40
2022-10-15T22:33:43.404Z,14.40
2022-10-15T22:36:15.323Z,14.40
2022-10-15T22:38:46.380Z,14.40
2022-10-15T22:41:16.990Z,14.30
2022-10-15T22:43:45.309Z,14.30
2022-10-15T22:46:13.743Z,14.30
2022-10-15T22:48:42.993Z,14.30
2022-10-15T22:51:13.594Z,14.30
2022-10-15T22:53:42.029Z,14.30
2022-10-15T22:56:13.105Z,14.20
2022-10-15T22:58:42.887Z,14.20
2022-10-15T23:01:12.964Z,14.20
2022-10-15T23:03:42.729Z,14.20
2022-10-15T23:06:11.092Z,14.20
2022-10-15T23:08:39.824Z,14.10
2022-10-15T23:11:09.985Z,14.10
2022-10-15T23:13:38.893Z,14.10
2022-10-15T23:16:20.580Z,14.10
2022-10-15T23:18:53.061Z,14.10
2022-10-15T23:21:27.722Z,14.10
2022-10-15T23:23:56.474Z,14.00
2022-10-15T23:26:24.568Z,14.00
2022-10-15T23:28:54.642Z,14.00
2022-10-15T23:31:26.316Z,13.90
2022-10-15T23:33:55.454Z,13.90
2022-10-15T23:36:24.737Z,13.90
2022-10-15T23:38:54.233Z,13.90
2022-10-15T23:41:22.560Z,13.90
2022-10-15T23:43:50.724Z,13.90
2022-10-15T23:46:19.369Z,13.80
2022-10-15T23:48:49.068Z,13.80
2022-10-15T23:51:20.238Z,13.80
2022-10-15T23:53:49.331Z,13.80
2022-10-15T23:56:18.209Z,13.80
2022-10-15T23:58:48.955Z,13.70
